Time;durP1;ratioP1;P1;durP2;ratioP2;P2;SDS_P1;SDS_P2;PMS_P1;PMS_P2;Temp;Humidity;BMP_temperature;BMP_pressure;BME280_temperature;BME280_humidity;BME280_pressure;Samples;Min_cycle;Max_cycle;Signal;HPM_P1;HPM_P2
2023/10/15 00:00:12;;;;;;;;;1.50;1.50;;;;;;;;5123318;28;11045;-78
2023/10/15 00:02:38;;;;;;;;;1.00;1.00;;;;;;;;5124921;28;11095;-77
2023/10/15 00:05:05;;;;;;;;;1.00;1.00;;;;;;;;5123742;28;11391;-78
2023/10/15 00:07:30;;;;;;;;;1.25;1.25;;;;;;;;5124425;28;8712;-77
2023/10/15 00:09:55;;;;;;;;;0.25;0.25;;;;;;;;5125014;28;11359;-77
2023/10/15 00:12:21;;;;;;;;;1.00;1.00;;;;;;;;5122871;28;9123;-77
2023/10/15 00:14:46;;;;;;;;;2.00;0.00;;;;;;;;5124890;28;8775;-78
2023/10/15 00:17:11;;;;;;;;;3.25;2.50;;;;;;;;5125158;28;8897;-77
2023/10/15 00:19:36;;;;;;;;;2.00;1.25;;;;;;;;5124371;28;8893;-78
2023/10/15 00:22:02;;;;;;;;;1.00;1.00;;;;;;;;5124425;28;8811;-78
2023/10/15 00:24:27;;;;;;;;;2.75;1.75;;;;;;;;5123691;28;8906;-78
2023/10/15 00:26:53;;;;;;;;;2.50;1.00;;;;;;;;5124291;28;8870;-77
2023/10/15 00:29:19;;;;;;;;;1.50;1.00;;;;;;;;5123233;28;10498;-77
2023/10/15 00:31:44;;;;;;;;;0.00;0.00;;;;;;;;5124442;28;11376;-77
2023/10/15 00:34:12;;;;;;;;;0.00;0.00;;;;;;;;5124097;28;8802;-78
2023/10/15 00:36:38;;;;;;;;;2.50;1.00;;;;;;;;5123398;28;8866;-77
2023/10/15 00:39:09;;;;;;;;;0.50;0.50;;;;;;;;5122464;28;11365;-78
2023/10/15 00:41:34;;;;;;;;;1.75;1.00;;;;;;;;5120175;28;8787;-77
2023/10/15 00:44:00;;;;;;;;;1.00;1.00;;;;;;;;5122815;28;11141;-78
2023/10/15 00:46:32;;;;;;;;;1.00;0.00;;;;;;;;5123504;28;8771;-78
2023/10/15 00:49:09;;;;;;;;;0.00;0.00;;;;;;;;5123626;28;9625;-77
2023/10/15 00:51:40;;;;;;;;;0.50;0.00;;;;;;;;5123738;28;11380;-77
2023/10/15 00:54:11;;;;;;;;;1.25;1.25;;;;;;;;5122900;28;11417;-78
2023/10/15 00:56:37;;;;;;;;;2.25;1.25;;;;;;;;5123801;28;11296;-77
2023/10/15 01:02:28;;;;;;;;;1.00;1.00;;;;;;;;5124125;28;8736;-78
2023/10/15 01:04:35;;;;;;;;;1.50;1.00;;;;;;;;5118370;28;11362;-78
2023/10/15 01:07:13;;;;;;;;;0.00;0.00;;;;;;;;5123592;28;11303;-78
2023/10/15 01:09:39;;;;;;;;;1.25;1.25;;;;;;;;5123620;28;11363;-77
2023/10/15 01:14:48;;;;;;;;;2.50;1.00;;;;;;;;5123798;28;11294;-78
2023/10/15 01:17:14;;;;;;;;;0.00;0.00;;;;;;;;5124188;28;11381;-78
2023/10/15 01:19:39;;;;;;;;;0.00;0.00;;;;;;;;5122054;28;10082;-78
2023/10/15 01:22:07;;;;;;;;;0.00;0.00;;;;;;;;5122115;28;8826;-78
2023/10/15 01:24:33;;;;;;;;;1.25;0.00;;;;;;;;5123800;28;8779;-77
2023/10/15 01:29:33;;;;;;;;;1.75;0.75;;;;;;;;5123576;28;8867;-77
2023/10/15 01:32:13;;;;;;;;;0.00;0.00;;;;;;;;5123609;28;11467;-78
2023/10/15 01:34:41;;;;;;;;;0.00;0.00;;;;;;;;5123712;28;8730;-78
2023/10/15 01:37:24;;;;;;;;;0.00;0.00;;;;;;;;5122987;27;11283;-77
2023/10/15 01:39:51;;;;;;;;;0.50;0.00;;;;;;;;5123278;27;11325;-77
2023/10/15 01:50:16;;;;;;;;;3.00;0.75;;;;;;;;5123076;28;11364;-78
2023/10/15 01:52:42;;;;;;;;;1.50;1.00;;;;;;;;5123362;28;11292;-78
2023/10/15 01:55:08;;;;;;;;;0.50;0.00;;;;;;;;5122757;28;11461;-78
2023/10/15 01:57:36;;;;;;;;;2.25;0.00;;;;;;;;5123443;28;8779;-77
2023/10/15 02:00:14;;;;;;;;;1.00;1.00;;;;;;;;5121419;28;10257;-78
2023/10/15 02:02:43;;;;;;;;;2.25;1.00;;;;;;;;5102821;28;11456;-78
2023/10/15 02:07:52;;;;;;;;;1.25;1.25;;;;;;;;5102264;28;11305;-77
2023/10/15 02:10:19;;;;;;;;;1.00;1.00;;;;;;;;5117899;28;11437;-77
2023/10/15 02:12:51;;;;;;;;;1.50;1.50;;;;;;;;5102275;28;8706;-78
2023/10/15 02:15:22;;;;;;;;;2.25;1.00;;;;;;;;5102504;28;11328;-77
2023/10/15 02:17:47;;;;;;;;;2.00;1.00;;;;;;;;5102862;28;11311;-78
2023/10/15 02:20:13;;;;;;;;;1.00;1.00;;;;;;;;5101865;28;11251;-78
2023/10/15 02:22:38;;;;;;;;;0.00;0.00;;;;;;;;5102141;28;8810;-78
2023/10/15 02:25:03;;;;;;;;;0.00;0.00;;;;;;;;5102599;28;8790;-78
2023/10/15 02:27:34;;;;;;;;;0.00;0.00;;;;;;;;5117991;28;8836;-78
2023/10/15 02:30:00;;;;;;;;;3.75;0.00;;;;;;;;5102194;28;8749;-78
2023/10/15 02:32:28;;;;;;;;;2.50;0.00;;;;;;;;5102628;28;11398;-78
2023/10/15 02:34:57;;;;;;;;;0.75;0.75;;;;;;;;5102507;28;8775;-78
2023/10/15 02:37:27;;;;;;;;;1.75;0.50;;;;;;;;5101699;28;11071;-78
2023/10/15 02:39:52;;;;;;;;;0.50;0.00;;;;;;;;5102398;28;11389;-78
2023/10/15 02:42:18;;;;;;;;;2.00;0.00;;;;;;;;5101496;28;11071;-78
2023/10/15 02:44:44;;;;;;;;;0.00;0.00;;;;;;;;5102288;28;9556;-78
2023/10/15 02:49:53;;;;;;;;;0.00;0.00;;;;;;;;5126107;28;8771;-78
2023/10/15 02:52:19;;;;;;;;;2.00;1.00;;;;;;;;5125430;28;11871;-78
2023/10/15 02:54:45;;;;;;;;;1.75;0.75;;;;;;;;5126281;28;8762;-78
2023/10/15 02:57:15;;;;;;;;;2.00;0.75;;;;;;;;5126111;28;11099;-78
2023/10/15 02:59:50;;;;;;;;;0.75;0.75;;;;;;;;5126085;28;11437;-78
2023/10/15 03:02:17;;;;;;;;;0.25;0.25;;;;;;;;5124357;28;10929;-78
2023/10/15 03:04:49;;;;;;;;;2.00;0.00;;;;;;;;5126090;28;11356;-78
2023/10/15 03:07:18;;;;;;;;;1.00;1.00;;;;;;;;5125272;28;11364;-78
2023/10/15 03:09:44;;;;;;;;;0.00;0.00;;;;;;;;5125912;28;11405;-78
2023/10/15 03:12:13;;;;;;;;;0.25;0.25;;;;;;;;5125641;28;11359;-78
2023/10/15 03:14:39;;;;;;;;;0.50;0.00;;;;;;;;5125312;28;11345;-78
2023/10/15 03:17:12;;;;;;;;;2.00;1.00;;;;;;;;5125887;28;11422;-78
2023/10/15 03:19:37;;;;;;;;;1.75;1.00;;;;;;;;5125753;28;8746;-78
2023/10/15 03:22:08;;;;;;;;;1.00;1.00;;;;;;;;5124853;28;11068;-78
2023/10/15 03:24:34;;;;;;;;;1.25;0.00;;;;;;;;5126022;27;8721;-78
2023/10/15 03:27:00;;;;;;;;;1.00;1.00;;;;;;;;5125464;27;11349;-78
2023/10/15 03:29:26;;;;;;;;;0.00;0.00;;;;;;;;5125474;27;8803;-78
2023/10/15 03:32:04;;;;;;;;;0.25;0.25;;;;;;;;5125823;27;8846;-78
2023/10/15 03:34:35;;;;;;;;;3.00;1.00;;;;;;;;5125120;27;11305;-78
2023/10/15 03:37:00;;;;;;;;;0.00;0.00;;;;;;;;5125205;27;11344;-78
2023/10/15 03:42:09;;;;;;;;;0.50;0.50;;;;;;;;5125625;28;8948;-78
2023/10/15 03:44:36;;;;;;;;;1.25;1.00;;;;;;;;5124935;27;8757;-78
2023/10/15 03:47:04;;;;;;;;;1.00;1.00;;;;;;;;5125493;27;11302;-78
2023/10/15 03:49:30;;;;;;;;;2.00;0.50;;;;;;;;5124206;28;11327;-78
2023/10/15 03:51:55;;;;;;;;;0.00;0.00;;;;;;;;5124945;28;11407;-78
2023/10/15 03:54:23;;;;;;;;;0.00;0.00;;;;;;;;5125204;28;8779;-78
2023/10/15 03:56:49;;;;;;;;;3.00;1.50;;;;;;;;5125325;28;8720;-78
2023/10/15 03:59:14;;;;;;;;;2.50;1.00;;;;;;;;5128353;28;11366;-78
2023/10/15 04:01:49;;;;;;;;;0.00;0.00;;;;;;;;5129109;28;8847;-78
2023/10/15 04:04:18;;;;;;;;;0.25;0.00;;;;;;;;5125079;28;8791;-78
2023/10/15 04:07:10;;;;;;;;;0.25;0.25;;;;;;;;5124687;28;11443;-78
2023/10/15 04:09:35;;;;;;;;;0.00;0.00;;;;;;;;5124730;28;11288;-78
2023/10/15 04:12:01;;;;;;;;;0.75;0.25;;;;;;;;5123685;28;11399;-78
2023/10/15 04:14:28;;;;;;;;;1.50;1.50;;;;;;;;5124354;28;8865;-78
2023/10/15 04:16:53;;;;;;;;;1.75;1.00;;;;;;;;5125063;28;12400;-78
2023/10/15 04:19:18;;;;;;;;;0.25;0.25;;;;;;;;5123956;27;11400;-78
2023/10/15 04:21:44;;;;;;;;;1.50;0.25;;;;;;;;5124362;28;8864;-78
2023/10/15 04:24:10;;;;;;;;;1.25;0.25;;;;;;;;5124855;27;8833;-78
2023/10/15 04:26:40;;;;;;;;;2.00;0.00;;;;;;;;5124690;28;8769;-78
2023/10/15 04:29:23;;;;;;;;;1.25;1.25;;;;;;;;5122957;28;10216;-77
2023/10/15 04:31:59;;;;;;;;;2.25;1.25;;;;;;;;5124422;27;11311;-78
2023/10/15 04:34:26;;;;;;;;;1.00;1.00;;;;;;;;5124138;27;11336;-78
2023/10/15 04:36:51;;;;;;;;;1.00;1.00;;;;;;;;5121979;27;11363;-78
2023/10/15 04:39:21;;;;;;;;;1.25;1.00;;;;;;;;5122963;28;11358;-78
2023/10/15 04:41:49;;;;;;;;;1.00;1.00;;;;;;;;5123025;28;8753;-78
2023/10/15 04:44:24;;;;;;;;;1.75;0.25;;;;;;;;5123186;28;11352;-78
2023/10/15 04:46:52;;;;;;;;;1.00;1.00;;;;;;;;5124066;28;11309;-78
2023/10/15 04:49:18;;;;;;;;;1.00;1.00;;;;;;;;5122269;28;11350;-78
2023/10/15 04:51:43;;;;;;;;;3.00;2.00;;;;;;;;5123401;28;11424;-78
2023/10/15 04:54:17;;;;;;;;;3.00;0.00;;;;;;;;5124384;28;8805;-78
2023/10/15 04:56:42;;;;;;;;;1.00;1.00;;;;;;;;5122732;28;9662;-78
2023/10/15 04:59:07;;;;;;;;;1.25;1.25;;;;;;;;5123688;27;11459;-78
2023/10/15 05:01:36;;;;;;;;;2.25;1.00;;;;;;;;5123750;28;8799;-78
2023/10/15 05:04:01;;;;;;;;;1.00;1.00;;;;;;;;5122766;28;8800;-78
2023/10/15 05:06:27;;;;;;;;;2.00;2.00;;;;;;;;5123908;28;11366;-78
2023/10/15 05:08:53;;;;;;;;;1.00;1.00;;;;;;;;5122070;28;9942;-78
2023/10/15 05:11:21;;;;;;;;;2.00;1.00;;;;;;;;5123341;27;8715;-78
2023/10/15 05:13:47;;;;;;;;;0.50;0.50;;;;;;;;5122010;28;11505;-78
2023/10/15 05:16:14;;;;;;;;;1.75;1.00;;;;;;;;5123661;28;11340;-78
2023/10/15 05:18:39;;;;;;;;;1.25;1.00;;;;;;;;5122401;28;10306;-78
2023/10/15 05:21:04;;;;;;;;;3.00;1.50;;;;;;;;5139736;27;11417;-78
2023/10/15 05:23:30;;;;;;;;;1.00;1.00;;;;;;;;5144080;27;8776;-78
2023/10/15 05:25:56;;;;;;;;;1.00;1.00;;;;;;;;5144589;27;8777;-79
2023/10/15 05:28:21;;;;;;;;;1.00;1.00;;;;;;;;5144023;27;8741;-78
2023/10/15 05:30:47;;;;;;;;;0.00;0.00;;;;;;;;5143760;27;11457;-78
2023/10/15 05:33:12;;;;;;;;;0.50;0.50;;;;;;;;5144428;27;8822;-78
2023/10/15 05:35:37;;;;;;;;;1.00;1.00;;;;;;;;5144201;27;8849;-78
2023/10/15 05:38:03;;;;;;;;;0.00;0.00;;;;;;;;5144101;27;8777;-78
2023/10/15 05:40:29;;;;;;;;;1.00;1.00;;;;;;;;5142854;27;8725;-78
2023/10/15 05:42:55;;;;;;;;;1.00;1.00;;;;;;;;5143503;27;11400;-78
2023/10/15 05:45:20;;;;;;;;;3.00;1.00;;;;;;;;5142192;27;8812;-78
2023/10/15 05:47:45;;;;;;;;;2.50;1.00;;;;;;;;5135615;27;8879;-78
2023/10/15 05:50:13;;;;;;;;;2.00;2.00;;;;;;;;5138161;27;9621;-78
2023/10/15 05:52:39;;;;;;;;;2.00;2.00;;;;;;;;5129007;27;8784;-78
2023/10/15 05:55:05;;;;;;;;;1.00;1.00;;;;;;;;5143953;27;11385;-78
2023/10/15 05:57:30;;;;;;;;;7.00;1.00;;;;;;;;5143873;27;8777;-78
2023/10/15 05:59:56;;;;;;;;;3.25;1.00;;;;;;;;5143445;27;8873;-78
2023/10/15 06:02:21;;;;;;;;;0.25;0.25;;;;;;;;5143845;27;8839;-78
2023/10/15 06:04:47;;;;;;;;;2.50;2.00;;;;;;;;5122248;27;8933;-78
2023/10/15 06:07:12;;;;;;;;;2.00;1.00;;;;;;;;5122749;28;8787;-77
2023/10/15 06:09:37;;;;;;;;;2.00;1.00;;;;;;;;5122352;27;8812;-78
2023/10/15 06:12:04;;;;;;;;;1.00;1.00;;;;;;;;5120278;28;8788;-77
2023/10/15 06:14:29;;;;;;;;;2.00;2.00;;;;;;;;5122079;28;8765;-77
2023/10/15 06:16:56;;;;;;;;;1.00;1.00;;;;;;;;5115283;27;11472;-79
2023/10/15 06:19:21;;;;;;;;;1.25;1.00;;;;;;;;5105800;27;8782;-78
2023/10/15 06:21:47;;;;;;;;;1.75;1.00;;;;;;;;5121602;27;12209;-78
2023/10/15 06:24:12;;;;;;;;;1.75;1.75;;;;;;;;5121550;28;8847;-79
2023/10/15 06:26:38;;;;;;;;;2.25;1.75;;;;;;;;5103581;28;10012;-78
2023/10/15 06:29:03;;;;;;;;;2.00;1.00;;;;;;;;5105017;28;9578;-78
2023/10/15 06:31:31;;;;;;;;;2.50;1.75;;;;;;;;5103821;28;8781;-78
2023/10/15 06:33:56;;;;;;;;;1.00;1.00;;;;;;;;5103322;28;8774;-78
2023/10/15 06:36:22;;;;;;;;;1.00;1.00;;;;;;;;5114377;27;11392;-78
2023/10/15 06:38:49;;;;;;;;;2.00;2.00;;;;;;;;5115670;28;8890;-79
2023/10/15 06:41:14;;;;;;;;;2.50;2.00;;;;;;;;5123133;28;8803;-79
2023/10/15 06:43:39;;;;;;;;;1.25;1.25;;;;;;;;5103272;28;12222;-79
2023/10/15 06:46:08;;;;;;;;;6.00;1.75;;;;;;;;5109856;28;8861;-79
2023/10/15 06:48:37;;;;;;;;;3.00;2.00;;;;;;;;5110957;28;8918;-79
2023/10/15 06:51:04;;;;;;;;;4.25;1.75;;;;;;;;5124769;27;11365;-78
2023/10/15 06:53:30;;;;;;;;;3.00;0.75;;;;;;;;5125795;27;11445;-78
2023/10/15 06:55:55;;;;;;;;;2.75;2.00;;;;;;;;5124332;28;11494;-78
2023/10/15 06:58:20;;;;;;;;;6.00;2.00;;;;;;;;5129321;27;8802;-78
2023/10/15 07:00:46;;;;;;;;;3.50;3.00;;;;;;;;5103525;28;8866;-80
2023/10/15 07:03:11;;;;;;;;;2.25;2.25;;;;;;;;5137532;27;8782;-79
2023/10/15 07:05:36;;;;;;;;;1.00;1.00;;;;;;;;5104256;28;8797;-80
2023/10/15 07:08:01;;;;;;;;;2.75;2.75;;;;;;;;5122572;28;8794;-81
2023/10/15 07:10:27;;;;;;;;;2.50;2.50;;;;;;;;5122816;28;9633;-79
2023/10/15 07:12:54;;;;;;;;;2.75;2.50;;;;;;;;5121766;28;8759;-80
2023/10/15 07:15:23;;;;;;;;;3.75;3.00;;;;;;;;5123847;28;11417;-80
2023/10/15 07:17:49;;;;;;;;;3.50;1.25;;;;;;;;5123249;28;11395;-79
2023/10/15 07:20:14;;;;;;;;;4.50;3.00;;;;;;;;5124188;27;11500;-80
2023/10/15 07:22:41;;;;;;;;;3.00;2.00;;;;;;;;5136630;27;8831;-79
2023/10/15 07:25:08;;;;;;;;;2.00;2.00;;;;;;;;5125770;27;8736;-80
2023/10/15 07:27:34;;;;;;;;;2.25;2.25;;;;;;;;5124879;28;11376;-80
2023/10/15 07:29:59;;;;;;;;;3.50;2.00;;;;;;;;5125413;28;11377;-80
2023/10/15 07:32:24;;;;;;;;;4.50;2.00;;;;;;;;5137356;27;8804;-79
2023/10/15 07:34:53;;;;;;;;;4.25;2.00;;;;;;;;5138383;27;8783;-80
2023/10/15 07:37:18;;;;;;;;;4.75;3.75;;;;;;;;5130480;28;8811;-79
2023/10/15 07:39:43;;;;;;;;;6.50;2.00;;;;;;;;5128148;28;11464;-78
2023/10/15 07:42:09;;;;;;;;;3.25;3.25;;;;;;;;5125410;28;8795;-79
2023/10/15 07:44:34;;;;;;;;;5.75;2.25;;;;;;;;5124912;28;8790;-79
2023/10/15 07:47:00;;;;;;;;;0.00;0.00;;;;;;;;5124247;28;8827;-75
2023/10/15 07:49:25;;;;;;;;;6.00;4.00;;;;;;;;5123969;28;8829;-76
2023/10/15 07:51:51;;;;;;;;;5.75;4.00;;;;;;;;5124292;27;8791;-75
2023/10/15 07:54:16;;;;;;;;;2.75;2.50;;;;;;;;5124253;28;9562;-76
2023/10/15 07:56:42;;;;;;;;;5.00;3.00;;;;;;;;5123247;27;8799;-75
2023/10/15 07:59:08;;;;;;;;;3.00;3.00;;;;;;;;5122802;28;8795;-79
2023/10/15 08:01:33;;;;;;;;;6.25;5.00;;;;;;;;5123974;28;9240;-77
2023/10/15 08:04:02;;;;;;;;;5.00;5.00;;;;;;;;5129561;27;10049;-77
2023/10/15 08:06:28;;;;;;;;;4.75;3.75;;;;;;;;5132721;27;8851;-77
2023/10/15 08:08:53;;;;;;;;;3.00;2.75;;;;;;;;5131772;27;11419;-76
2023/10/15 08:11:18;;;;;;;;;5.75;3.00;;;;;;;;5133970;27;8939;-77
2023/10/15 08:13:44;;;;;;;;;2.00;2.00;;;;;;;;5129952;27;8815;-76
2023/10/15 08:16:10;;;;;;;;;3.00;3.00;;;;;;;;5135473;27;9585;-76
2023/10/15 08:18:35;;;;;;;;;11.50;2.75;;;;;;;;5140992;27;8889;-76
2023/10/15 08:21:01;;;;;;;;;4.25;2.25;;;;;;;;5137412;27;8832;-75
2023/10/15 08:23:27;;;;;;;;;4.00;2.50;;;;;;;;5124596;27;10404;-76
2023/10/15 08:25:53;;;;;;;;;3.00;3.00;;;;;;;;5126243;27;8788;-75
2023/10/15 08:28:18;;;;;;;;;5.00;2.75;;;;;;;;5123788;28;9230;-75
2023/10/15 08:30:43;;;;;;;;;2.50;1.75;;;;;;;;5125277;27;8823;-76
2023/10/15 08:33:12;;;;;;;;;4.25;3.00;;;;;;;;5128763;27;10065;-75
2023/10/15 08:35:37;;;;;;;;;1.75;1.75;;;;;;;;5120904;27;8949;-75
2023/10/15 08:38:02;;;;;;;;;6.75;6.00;;;;;;;;5124081;27;11389;-76
2023/10/15 08:40:30;;;;;;;;;4.25;3.00;;;;;;;;5123744;27;8915;-76
2023/10/15 08:43:11;;;;;;;;;2.00;2.00;;;;;;;;5122235;28;10315;-76
2023/10/15 08:45:37;;;;;;;;;1.75;0.25;;;;;;;;5137513;27;11317;-77
2023/10/15 08:48:04;;;;;;;;;2.00;0.00;;;;;;;;5125623;27;11398;-77
2023/10/15 08:50:29;;;;;;;;;2.00;1.00;;;;;;;;5126550;27;11497;-77
2023/10/15 08:52:55;;;;;;;;;1.00;1.00;;;;;;;;5121529;28;12133;-78
2023/10/15 08:55:23;;;;;;;;;1.25;1.00;;;;;;;;5123550;27;8905;-78
2023/10/15 08:57:54;;;;;;;;;3.75;0.75;;;;;;;;5136097;27;8800;-76
2023/10/15 09:00:26;;;;;;;;;1.00;1.00;;;;;;;;5139472;27;11378;-76
2023/10/15 09:02:56;;;;;;;;;2.00;1.75;;;;;;;;5120917;28;11345;-76
2023/10/15 09:05:24;;;;;;;;;2.25;1.00;;;;;;;;5130112;27;11324;-76
2023/10/15 09:07:52;;;;;;;;;0.00;0.00;;;;;;;;5128294;27;11498;-75
2023/10/15 09:10:17;;;;;;;;;1.75;0.00;;;;;;;;5120171;28;11356;-76
2023/10/15 09:12:42;;;;;;;;;1.00;0.00;;;;;;;;5120876;27;11416;-77
2023/10/15 09:15:16;;;;;;;;;4.75;0.00;;;;;;;;5122694;28;8795;-76
2023/10/15 09:18:01;;;;;;;;;0.00;0.00;;;;;;;;5134701;27;8775;-76
2023/10/15 09:20:27;;;;;;;;;0.00;0.00;;;;;;;;5117203;28;11316;-76
2023/10/15 09:22:59;;;;;;;;;1.00;0.00;;;;;;;;5123319;28;11041;-76
2023/10/15 09:25:25;;;;;;;;;2.50;0.00;;;;;;;;5124105;27;8757;-76
2023/10/15 09:27:52;;;;;;;;;0.75;0.00;;;;;;;;5123649;28;11031;-75
2023/10/15 09:30:21;;;;;;;;;0.00;0.00;;;;;;;;5133094;27;11804;-75
2023/10/15 09:32:47;;;;;;;;;0.00;0.00;;;;;;;;5144414;27;11446;-75
2023/10/15 09:35:13;;;;;;;;;1.00;0.00;;;;;;;;5143959;27;10943;-76
2023/10/15 09:37:42;;;;;;;;;0.50;0.00;;;;;;;;5141714;27;11205;-76
2023/10/15 09:40:30;;;;;;;;;1.00;0.00;;;;;;;;5125703;27;8800;-76
2023/10/15 09:42:55;;;;;;;;;0.00;0.00;;;;;;;;5121883;27;11347;-77
2023/10/15 09:45:24;;;;;;;;;0.00;0.00;;;;;;;;5123727;27;11408;-76
2023/10/15 09:47:57;;;;;;;;;0.00;0.00;;;;;;;;5126775;27;8769;-76
2023/10/15 09:50:25;;;;;;;;;0.00;0.00;;;;;;;;5131382;27;10831;-76
2023/10/15 09:53:00;;;;;;;;;0.00;0.00;;;;;;;;5123907;27;11271;-76
2023/10/15 09:55:31;;;;;;;;;0.00;0.00;;;;;;;;5140111;27;11941;-75
2023/10/15 09:57:57;;;;;;;;;1.00;0.75;;;;;;;;5124356;27;11793;-75
2023/10/15 10:01:08;;;;;;;;;1.50;0.00;;;;;;;;5122921;27;10922;-74
2023/10/15 10:03:30;;;;;;;;;0.00;0.00;;;;;;;;5122970;27;8780;-79
2023/10/15 10:06:09;;;;;;;;;0.50;0.00;;;;;;;;5133370;27;10976;-75
2023/10/15 10:08:41;;;;;;;;;0.00;0.00;;;;;;;;5122247;27;10975;-76
2023/10/15 10:11:15;;;;;;;;;0.00;0.00;;;;;;;;5131724;27;10945;-75
2023/10/15 10:13:43;;;;;;;;;0.00;0.00;;;;;;;;5130545;27;11086;-75
2023/10/15 10:16:18;;;;;;;;;0.00;0.00;;;;;;;;5128622;27;10985;-75
2023/10/15 10:18:44;;;;;;;;;1.00;0.00;;;;;;;;5132976;27;11170;-78
2023/10/15 10:21:12;;;;;;;;;8.00;3.50;;;;;;;;5130283;27;10983;-74
2023/10/15 10:23:37;;;;;;;;;1.00;0.00;;;;;;;;5132197;27;9692;-75
2023/10/15 10:26:10;;;;;;;;;1.75;1.00;;;;;;;;5131812;27;10736;-75
2023/10/15 10:28:36;;;;;;;;;0.00;0.00;;;;;;;;5131237;27;8771;-76
2023/10/15 10:31:01;;;;;;;;;0.00;0.00;;;;;;;;5134499;27;10830;-76
2023/10/15 10:33:44;;;;;;;;;0.00;0.00;;;;;;;;5131181;27;8803;-75
2023/10/15 10:36:13;;;;;;;;;1.00;0.00;;;;;;;;5120518;28;8807;-75
2023/10/15 10:38:39;;;;;;;;;0.00;0.00;;;;;;;;5131834;27;10823;-75
2023/10/15 10:41:06;;;;;;;;;0.00;0.00;;;;;;;;5141384;27;10761;-75
2023/10/15 10:43:33;;;;;;;;;0.00;0.00;;;;;;;;5132943;27;8787;-75
2023/10/15 10:45:59;;;;;;;;;0.00;0.00;;;;;;;;5122271;28;10795;-75
2023/10/15 10:48:28;;;;;;;;;0.00;0.00;;;;;;;;5120944;28;10460;-75
2023/10/15 10:51:18;;;;;;;;;3.00;0.00;;;;;;;;5122033;28;10595;-76
2023/10/15 10:53:56;;;;;;;;;2.00;0.00;;;;;;;;5120636;28;10687;-76
2023/10/15 10:56:41;;;;;;;;;0.00;0.00;;;;;;;;5122470;28;10590;-76
2023/10/15 10:59:07;;;;;;;;;2.25;0.00;;;;;;;;5120780;27;10680;-76
2023/10/15 11:01:33;;;;;;;;;1.00;0.00;;;;;;;;5142114;27;10686;-77
2023/10/15 11:03:59;;;;;;;;;0.00;0.00;;;;;;;;5118128;28;8795;-77
2023/10/15 11:06:25;;;;;;;;;0.00;0.00;;;;;;;;5121813;27;9262;-77
2023/10/15 11:08:51;;;;;;;;;2.75;1.00;;;;;;;;5122378;27;8747;-77
2023/10/15 11:11:19;;;;;;;;;0.00;0.00;;;;;;;;5125515;28;10764;-77
2023/10/15 11:13:46;;;;;;;;;2.00;1.00;;;;;;;;5123650;28;10977;-76
2023/10/15 11:16:12;;;;;;;;;1.00;1.00;;;;;;;;5137136;27;10899;-77
2023/10/15 11:18:39;;;;;;;;;0.00;0.00;;;;;;;;5129224;27;10734;-76
2023/10/15 11:21:04;;;;;;;;;2.50;2.50;;;;;;;;5125154;28;8805;-76
2023/10/15 11:23:30;;;;;;;;;2.00;1.00;;;;;;;;5126706;27;10896;-76
2023/10/15 11:25:56;;;;;;;;;0.50;0.00;;;;;;;;5154758;27;8803;-76
2023/10/15 11:28:21;;;;;;;;;0.00;0.00;;;;;;;;5125455;28;8800;-76
2023/10/15 11:30:46;;;;;;;;;4.00;1.00;;;;;;;;5124847;28;10739;-77
2023/10/15 11:33:12;;;;;;;;;1.50;0.50;;;;;;;;5124425;28;8796;-77
2023/10/15 11:35:38;;;;;;;;;2.75;1.75;;;;;;;;5125685;27;8757;-77
2023/10/15 11:38:10;;;;;;;;;1.00;1.00;;;;;;;;5126459;27;10407;-74
2023/10/15 11:40:39;;;;;;;;;2.00;0.00;;;;;;;;5117623;27;8763;-75
2023/10/15 11:43:19;;;;;;;;;0.50;0.00;;;;;;;;5131792;27;10660;-76
2023/10/15 11:45:45;;;;;;;;;0.75;0.00;;;;;;;;5135801;27;11623;-76
2023/10/15 11:48:13;;;;;;;;;0.00;0.00;;;;;;;;5132818;27;10341;-76
2023/10/15 11:50:44;;;;;;;;;1.00;0.00;;;;;;;;5135839;27;10515;-76
2023/10/15 11:53:19;;;;;;;;;0.50;0.50;;;;;;;;5131816;27;10595;-76
2023/10/15 11:55:50;;;;;;;;;0.00;0.00;;;;;;;;5133667;27;10396;-76
2023/10/15 11:58:16;;;;;;;;;0.00;0.00;;;;;;;;5120564;27;10477;-76
2023/10/15 12:00:42;;;;;;;;;0.00;0.00;;;;;;;;5131050;27;10038;-76
2023/10/15 12:03:09;;;;;;;;;0.00;0.00;;;;;;;;5124911;27;10606;-76
2023/10/15 12:05:34;;;;;;;;;1.00;0.00;;;;;;;;5131769;27;11390;-76
2023/10/15 12:08:00;;;;;;;;;0.00;0.00;;;;;;;;5138488;27;10355;-76
2023/10/15 12:10:25;;;;;;;;;0.00;0.00;;;;;;;;5142752;27;8974;-76
2023/10/15 12:12:51;;;;;;;;;1.75;0.00;;;;;;;;5136242;27;10045;-76
2023/10/15 12:15:16;;;;;;;;;0.00;0.00;;;;;;;;5123054;28;9575;-76
2023/10/15 12:17:41;;;;;;;;;0.00;0.00;;;;;;;;5122335;28;8826;-76
2023/10/15 12:20:07;;;;;;;;;0.00;0.00;;;;;;;;5121830;27;8903;-76
2023/10/15 12:22:32;;;;;;;;;0.00;0.00;;;;;;;;5122047;28;9796;-76
2023/10/15 12:25:00;;;;;;;;;0.00;0.00;;;;;;;;5122626;27;8818;-76
2023/10/15 12:27:28;;;;;;;;;1.00;0.00;;;;;;;;5119643;28;8763;-76
2023/10/15 12:29:54;;;;;;;;;0.25;0.25;;;;;;;;5122351;28;9752;-76
2023/10/15 12:32:20;;;;;;;;;0.00;0.00;;;;;;;;5122222;28;10175;-76
2023/10/15 12:34:45;;;;;;;;;0.00;0.00;;;;;;;;5123812;27;10167;-76
2023/10/15 12:37:13;;;;;;;;;0.00;0.00;;;;;;;;5131721;27;8808;-77
2023/10/15 12:39:40;;;;;;;;;1.00;0.00;;;;;;;;5144182;27;8990;-76
2023/10/15 12:42:08;;;;;;;;;0.50;0.00;;;;;;;;5139521;27;10326;-76
2023/10/15 12:44:38;;;;;;;;;1.00;0.00;;;;;;;;5136799;27;10073;-76
2023/10/15 12:47:03;;;;;;;;;0.25;0.00;;;;;;;;5124887;27;9803;-77
2023/10/15 12:49:29;;;;;;;;;0.25;0.00;;;;;;;;5115372;28;10059;-76
2023/10/15 12:51:54;;;;;;;;;1.00;0.00;;;;;;;;5115190;27;9676;-76
2023/10/15 12:54:19;;;;;;;;;0.00;0.00;;;;;;;;5114231;28;8952;-77
2023/10/15 12:56:45;;;;;;;;;0.00;0.00;;;;;;;;5114348;27;9569;-78
2023/10/15 12:59:10;;;;;;;;;0.00;0.00;;;;;;;;5137702;27;8828;-76
2023/10/15 13:01:40;;;;;;;;;0.00;0.00;;;;;;;;5118843;28;9607;-76
2023/10/15 13:04:06;;;;;;;;;0.00;0.00;;;;;;;;5120654;28;8764;-76
2023/10/15 13:06:32;;;;;;;;;0.00;0.00;;;;;;;;5121669;27;10074;-77
2023/10/15 13:09:00;;;;;;;;;0.75;0.00;;;;;;;;5119733;28;8927;-77
2023/10/15 13:11:25;;;;;;;;;0.00;0.00;;;;;;;;5122016;28;10195;-77
2023/10/15 13:13:51;;;;;;;;;0.00;0.00;;;;;;;;5123425;27;8820;-77
2023/10/15 13:16:18;;;;;;;;;0.00;0.00;;;;;;;;5144175;27;8802;-77
2023/10/15 13:18:43;;;;;;;;;0.00;0.00;;;;;;;;5140659;27;8771;-77
2023/10/15 13:21:08;;;;;;;;;1.00;0.00;;;;;;;;5123320;28;10171;-77
2023/10/15 13:23:37;;;;;;;;;0.00;0.00;;;;;;;;5123138;28;8803;-77
2023/10/15 13:26:04;;;;;;;;;0.00;0.00;;;;;;;;5130037;27;8986;-77
2023/10/15 13:28:30;;;;;;;;;0.00;0.00;;;;;;;;5120683;27;9997;-77
2023/10/15 13:30:55;;;;;;;;;0.00;0.00;;;;;;;;5118306;27;10210;-76
2023/10/15 13:33:20;;;;;;;;;0.00;0.00;;;;;;;;5121865;28;8834;-76
2023/10/15 13:35:46;;;;;;;;;0.00;0.00;;;;;;;;5123339;28;8838;-76
2023/10/15 13:38:11;;;;;;;;;0.00;0.00;;;;;;;;5132690;27;8901;-77
2023/10/15 13:40:38;;;;;;;;;0.00;0.00;;;;;;;;5143706;27;8784;-77
2023/10/15 13:43:04;;;;;;;;;0.75;0.00;;;;;;;;5130429;27;8836;-79
2023/10/15 13:45:29;;;;;;;;;0.00;0.00;;;;;;;;5121945;28;10057;-76
2023/10/15 13:47:55;;;;;;;;;1.00;0.00;;;;;;;;5123226;27;9622;-80
2023/10/15 13:50:20;;;;;;;;;1.75;0.00;;;;;;;;5123274;28;9550;-76
2023/10/15 13:52:46;;;;;;;;;0.00;0.00;;;;;;;;5122947;28;8916;-77
2023/10/15 13:55:12;;;;;;;;;0.00;0.00;;;;;;;;5141576;27;8784;-78
2023/10/15 13:57:38;;;;;;;;;0.00;0.00;;;;;;;;5144000;27;8792;-76
2023/10/15 14:00:18;;;;;;;;;1.50;0.00;;;;;;;;5141968;27;10027;-78
2023/10/15 14:02:44;;;;;;;;;0.00;0.00;;;;;;;;5143864;27;11367;-77
2023/10/15 14:05:15;;;;;;;;;1.00;0.00;;;;;;;;5115580;27;10002;-76
2023/10/15 14:07:41;;;;;;;;;1.00;0.00;;;;;;;;5113310;27;11473;-77
